»·PEaware :: AAL225 KPSP-KSLC

AAL225 :: KPSP-KSLC

FLIGHT INFORMATION

Flight Status: Arrived
Operator:
American Airlines
More flights by this operator :: More flights under this callsign
Pilot: Michael R. (16974)
Aircraft: BOEING 737-800
(B738)
More flights by this aircraft type
Origin: KPSP Palm Springs Intl
United States
Destination: KSLC Salt Lake City Intl
United States
More flights between these airports :: More routes between these airports
Route: +CATH1 PSP V370 TNP JOTNU ZELMA HAKMN MLF DELTA5
File this flight plan on PilotEdge
Remarks:
Altitude:
(Current/Filed)
33,000ft
Speed:
(Current/Filed)
458kts
Departed: 29-Apr-18 09:21 PM
Arrived: 29-Apr-18 10:32 PM
Distance/Time
Traveled:
470nm/1:11
Distance/Time
To Go:
Arrived

Flight Plot

Page will automatically refresh every two minutes.

Flight plan parsing failed; only flown route is shown


Map Options




Map Legend


Flown Route
Filed Route
Departure Airport
Arrival Airport
Navaid (VOR, NDB)
Fix

Horizontal Profiles

Position Reports

Time Latitude Longitude Heading Altitude Ground
Speed
29-Apr-18 20:48 33.822759 -116.505920 291 485ft 0kts
29-Apr-18 20:49 33.822759 -116.505920 291 485ft 0kts
29-Apr-18 20:50 33.822759 -116.505920 291 485ft 0kts
29-Apr-18 20:51 33.822759 -116.505920 291 485ft 0kts
29-Apr-18 20:52 33.822759 -116.505919 291 485ft 0kts
29-Apr-18 20:53 33.822759 -116.505919 291 485ft 0kts
29-Apr-18 20:54 33.822759 -116.505919 291 485ft 0kts
29-Apr-18 20:55 33.822759 -116.505919 291 485ft 0kts
29-Apr-18 20:56 33.822759 -116.505919 291 485ft 0kts
29-Apr-18 20:57 33.822759 -116.505919 291 485ft 0kts
29-Apr-18 20:58 33.822759 -116.505919 291 485ft 0kts
29-Apr-18 20:59 33.822759 -116.505919 291 485ft 0kts
29-Apr-18 21:00 33.822759 -116.505919 291 485ft 0kts
29-Apr-18 21:01 33.822759 -116.505919 291 485ft 0kts
29-Apr-18 21:02 33.822759 -116.505919 291 485ft 0kts
29-Apr-18 21:03 33.822759 -116.505919 291 485ft 0kts
29-Apr-18 21:04 33.822759 -116.505919 291 485ft 0kts
29-Apr-18 21:05 33.822759 -116.505919 291 485ft 0kts
29-Apr-18 21:06 33.822759 -116.505919 291 485ft 0kts
29-Apr-18 21:07 33.822759 -116.505919 291 485ft 0kts
29-Apr-18 21:08 33.822415 -116.505514 3 485ft 2kts
29-Apr-18 21:09 33.822149 -116.505710 52 485ft 0kts
29-Apr-18 21:10 33.822149 -116.505709 52 485ft 0kts
29-Apr-18 21:11 33.822149 -116.505709 52 485ft 0kts
29-Apr-18 21:12 33.822149 -116.505709 52 485ft 0kts
29-Apr-18 21:13 33.822202 -116.505627 51 485ft 2kts
29-Apr-18 21:14 33.822869 -116.504587 54 485ft 0kts
29-Apr-18 21:15 33.822869 -116.504587 54 485ft 0kts
29-Apr-18 21:16 33.822894 -116.504545 54 485ft 2kts
29-Apr-18 21:17 33.820854 -116.501816 142 485ft 22kts
29-Apr-18 21:18 33.818520 -116.499111 90 485ft 0kts
29-Apr-18 21:19 33.818667 -116.498367 49 485ft 7kts
29-Apr-18 21:20 33.823472 -116.502167 323 485ft 94kts
29-Apr-18 21:21 33.860543 -116.536006 321 2392ft 209kts
29-Apr-18 21:22 33.914608 -116.559201 32 5625ft 253kts
29-Apr-18 21:23 33.919339 -116.473607 72 8604ft 285kts
29-Apr-18 21:24 33.944099 -116.381004 67 11552ft 300kts
29-Apr-18 21:25 33.970668 -116.285330 68 14194ft 315kts
29-Apr-18 21:26 34.001179 -116.175527 70 15826ft 374kts
29-Apr-18 21:27 34.034978 -116.052791 69 18194ft 400kts
29-Apr-18 21:28 34.069116 -115.928154 69 20285ft 422kts
29-Apr-18 21:29 34.106506 -115.792822 63 22235ft 442kts
29-Apr-18 21:30 34.185722 -115.684486 36 23906ft 444kts
29-Apr-18 21:31 34.277342 -115.582358 36 25689ft 459kts
29-Apr-18 21:32 34.381674 -115.501002 9 27395ft 445kts
29-Apr-18 21:33 34.499749 -115.451637 10 28935ft 457kts
29-Apr-18 21:34 34.619885 -115.399858 10 30741ft 458kts
29-Apr-18 21:35 34.735763 -115.349477 10 32681ft 448kts
29-Apr-18 21:36 34.855281 -115.303376 6 32786ft 475kts
29-Apr-18 21:37 34.984160 -115.259677 7 32778ft 484kts
29-Apr-18 21:38 35.109101 -115.216955 7 32770ft 490kts
29-Apr-18 21:39 35.231288 -115.174990 7 32766ft 490kts
29-Apr-18 21:40 35.362333 -115.129907 7 32768ft 492kts
29-Apr-18 21:41 35.493523 -115.084669 7 32799ft 492kts
29-Apr-18 21:42 35.617969 -115.006058 23 32791ft 508kts
29-Apr-18 21:43 35.739917 -114.920130 23 32791ft 507kts
29-Apr-18 21:44 35.860937 -114.835075 23 32723ft 498kts
29-Apr-18 21:45 35.981972 -114.749920 23 32807ft 504kts
29-Apr-18 21:46 36.102716 -114.664764 23 32806ft 521kts
29-Apr-18 21:47 36.225262 -114.577927 23 32802ft 521kts
29-Apr-18 21:48 36.349713 -114.489400 24 32745ft 509kts
29-Apr-18 21:49 36.472403 -114.401840 24 32751ft 512kts
29-Apr-18 21:50 36.590110 -114.317537 25 32740ft 512kts
29-Apr-18 21:51 36.712267 -114.229855 25 32758ft 515kts
29-Apr-18 21:52 36.836964 -114.140040 25 32766ft 512kts
29-Apr-18 21:53 36.960113 -114.050931 25 32773ft 514kts
29-Apr-18 21:54 37.083720 -113.961129 25 32775ft 514kts
29-Apr-18 21:55 37.197997 -113.877803 25 32773ft 514kts
29-Apr-18 21:56 37.320510 -113.788078 26 32768ft 505kts
29-Apr-18 21:57 37.442054 -113.698776 26 32779ft 518kts
29-Apr-18 21:58 37.566069 -113.607270 26 32779ft 516kts
29-Apr-18 21:59 37.689559 -113.515771 26 32860ft 516kts
29-Apr-18 22:00 37.812259 -113.424468 26 32862ft 505kts
29-Apr-18 22:01 37.926578 -113.339126 27 32858ft 496kts
29-Apr-18 22:02 38.043988 -113.251315 27 32854ft 497kts
29-Apr-18 22:03 38.154903 -113.168096 28 32903ft 502kts
29-Apr-18 22:04 38.274218 -113.078173 28 32905ft 500kts
29-Apr-18 22:05 38.394886 -112.992139 19 32917ft 496kts
29-Apr-18 22:06 38.522012 -112.925258 19 32909ft 497kts
29-Apr-18 22:07 38.649120 -112.857776 19 32910ft 497kts
29-Apr-18 22:08 38.771559 -112.792303 20 32917ft 496kts
29-Apr-18 22:09 38.897590 -112.724558 20 32923ft 498kts
29-Apr-18 22:10 39.025103 -112.655650 20 32923ft 499kts
29-Apr-18 22:11 39.145539 -112.590272 20 32899ft 492kts
29-Apr-18 22:12 39.267210 -112.523940 21 29807ft 468kts
29-Apr-18 22:13 39.382416 -112.459093 22 26279ft 441kts
29-Apr-18 22:14 39.490777 -112.396798 22 22819ft 418kts
29-Apr-18 22:15 39.590327 -112.339454 24 19540ft 398kts
29-Apr-18 22:16 39.687357 -112.283502 25 16515ft 371kts
29-Apr-18 22:17 39.777257 -112.231472 25 13681ft 343kts
29-Apr-18 22:18 39.860492 -112.183101 25 11002ft 312kts
29-Apr-18 22:19 39.939706 -112.136918 25 10963ft 317kts
29-Apr-18 22:20 40.019837 -112.089338 25 10962ft 318kts
29-Apr-18 22:21 40.099930 -112.040925 25 10962ft 318kts
29-Apr-18 22:22 40.173436 -111.996387 25 10964ft 318kts
29-Apr-18 22:23 40.253252 -111.947907 25 10963ft 318kts
29-Apr-18 22:24 40.340189 -111.942253 352 10500ft 317kts
29-Apr-18 22:25 40.422257 -111.952566 355 10070ft 282kts
29-Apr-18 22:26 40.499097 -111.958870 355 8975ft 259kts
29-Apr-18 22:27 40.572630 -111.967538 353 7807ft 269kts
29-Apr-18 22:28 40.646505 -111.977629 352 6626ft 264kts
29-Apr-18 22:29 40.712309 -111.986734 351 5467ft 216kts
29-Apr-18 22:30 40.764545 -111.993989 350 4465ft 159kts
29-Apr-18 22:31 40.794516 -111.997036 31 4235ft 37kts

Navigation Log

Ident Type
Flight plan parsing failed, navigation log unavailable